createdAt,value
2019-03-24T00:02:28.705Z,1.74
2019-03-24T00:04:59.720Z,1.69
2019-03-24T00:07:30.834Z,1.71
2019-03-24T00:10:02.844Z,1.67
2019-03-24T00:12:33.955Z,1.66
2019-03-24T00:15:09.378Z,1.58
2019-03-24T00:17:40.997Z,1.48
2019-03-24T00:20:13.718Z,1.49
2019-03-24T00:22:44.838Z,1.51
2019-03-24T00:25:15.949Z,1.50
2019-03-24T00:27:47.091Z,1.46
2019-03-24T00:30:18.235Z,1.43
2019-03-24T00:32:49.319Z,1.43
2019-03-24T00:35:20.452Z,1.37
2019-03-24T00:37:51.623Z,1.41
2019-03-24T00:40:22.834Z,1.35
2019-03-24T00:42:54.398Z,1.27
2019-03-24T00:45:36.215Z,1.23
2019-03-24T00:47:58.411Z,1.22
2019-03-24T00:50:29.535Z,1.20
2019-03-24T00:53:00.699Z,1.20
2019-03-24T00:55:31.744Z,1.19
2019-03-24T00:58:02.803Z,1.16
2019-03-24T01:00:45.317Z,1.15
2019-03-24T01:03:16.602Z,1.13
2019-03-24T01:05:47.835Z,1.13
2019-03-24T01:08:19.159Z,1.11
2019-03-24T01:10:50.278Z,1.12
2019-03-24T01:13:23.242Z,1.04
2019-03-24T01:15:54.307Z,1.01
2019-03-24T01:18:25.455Z,0.99
2019-03-24T01:20:56.602Z,0.91
2019-03-24T01:23:27.666Z,0.92
2019-03-24T01:25:58.759Z,0.85
2019-03-24T01:28:30.026Z,0.86
2019-03-24T01:31:01.078Z,0.85
2019-03-24T01:33:32.254Z,0.78
2019-03-24T01:36:03.463Z,0.80
2019-03-24T01:38:34.545Z,0.80
2019-03-24T01:41:08.001Z,0.79
2019-03-24T01:43:39.745Z,0.87
2019-03-24T01:46:10.803Z,0.93
2019-03-24T01:48:42.197Z,0.87
2019-03-24T01:51:13.360Z,0.86
2019-03-24T01:53:45.529Z,0.80
2019-03-24T01:56:16.706Z,0.87
2019-03-24T01:58:47.879Z,0.90
2019-03-24T02:01:19.107Z,0.86
2019-03-24T02:03:50.444Z,0.74
2019-03-24T02:06:21.463Z,0.77
2019-03-24T02:08:52.624Z,0.90
2019-03-24T02:11:23.837Z,0.86
2019-03-24T02:13:54.876Z,0.83
2019-03-24T02:16:26.029Z,0.91
2019-03-24T02:18:57.329Z,0.96
2019-03-24T02:21:28.451Z,0.86
2019-03-24T02:24:00.204Z,0.87
2019-03-24T02:26:31.374Z,0.88
2019-03-24T02:29:02.558Z,0.83
2019-03-24T02:31:34.768Z,0.89
2019-03-24T02:34:05.779Z,0.86
2019-03-24T02:36:37.364Z,0.95
2019-03-24T02:39:08.652Z,0.90
2019-03-24T02:41:39.779Z,0.97
2019-03-24T02:44:11.040Z,0.85
2019-03-24T02:46:42.401Z,0.90
2019-03-24T02:49:14.494Z,0.95
2019-03-24T02:51:45.658Z,0.94
2019-03-24T02:54:16.942Z,1.02
2019-03-24T02:56:47.929Z,0.96
2019-03-24T02:59:20.316Z,0.99
2019-03-24T03:01:51.593Z,0.97
2019-03-24T03:04:22.680Z,0.97
2019-03-24T03:06:53.782Z,0.90
2019-03-24T03:09:26.468Z,0.96
2019-03-24T03:11:57.494Z,0.95
2019-03-24T03:14:28.583Z,0.96
2019-03-24T03:16:59.768Z,0.97
2019-03-24T03:19:31.002Z,1.03
2019-03-24T03:22:02.181Z,0.99
2019-03-24T03:24:33.441Z,0.90
2019-03-24T03:27:04.666Z,0.94
2019-03-24T03:29:37.693Z,0.93
2019-03-24T03:32:08.978Z,0.97
2019-03-24T03:34:40.077Z,0.95
2019-03-24T03:37:11.193Z,0.85
2019-03-24T03:39:42.388Z,0.85
2019-03-24T03:42:13.503Z,0.99
2019-03-24T03:44:44.722Z,0.94
2019-03-24T03:47:15.794Z,1.01
2019-03-24T03:49:46.867Z,0.94
2019-03-24T03:52:17.969Z,0.98
2019-03-24T03:54:49.110Z,0.98
2019-03-24T03:57:20.165Z,0.91
2019-03-24T03:59:51.433Z,0.95
2019-03-24T04:02:22.678Z,0.88
2019-03-24T04:04:53.833Z,0.87
2019-03-24T04:07:24.970Z,0.90
2019-03-24T04:09:56.166Z,0.95
2019-03-24T04:12:27.217Z,1.07
2019-03-24T04:14:58.306Z,1.13
2019-03-24T04:17:29.469Z,1.20
2019-03-24T04:20:00.710Z,1.23
2019-03-24T04:22:31.828Z,1.18
2019-03-24T04:25:03.055Z,1.15
2019-03-24T04:27:34.186Z,1.25
2019-03-24T04:30:06.798Z,1.18
2019-03-24T04:32:38.013Z,1.23
2019-03-24T04:35:09.117Z,1.24
2019-03-24T04:37:40.326Z,1.33
2019-03-24T04:40:12.939Z,1.34
2019-03-24T04:42:44.183Z,1.41
2019-03-24T04:45:15.315Z,1.19
2019-03-24T04:47:46.437Z,1.35
2019-03-24T04:50:17.613Z,1.36
2019-03-24T04:52:48.689Z,1.49
2019-03-24T04:55:19.980Z,1.47
2019-03-24T04:57:51.143Z,1.54
2019-03-24T05:00:25.630Z,1.62
2019-03-24T05:02:56.867Z,1.62
2019-03-24T05:05:28.092Z,1.60
2019-03-24T05:07:59.206Z,1.45
2019-03-24T05:10:30.313Z,1.59
2019-03-24T05:13:01.453Z,1.67
2019-03-24T05:15:32.658Z,1.71
2019-03-24T05:18:06.693Z,1.75
2019-03-24T05:20:37.948Z,1.66
2019-03-24T05:23:08.947Z,1.73
2019-03-24T05:25:40.024Z,1.84
2019-03-24T05:28:11.088Z,1.76
2019-03-24T05:30:42.237Z,1.84
2019-03-24T05:33:13.364Z,1.84
2019-03-24T05:35:44.438Z,1.87
2019-03-24T05:38:15.551Z,1.92
2019-03-24T05:40:46.622Z,1.96
2019-03-24T05:43:17.939Z,2.02
2019-03-24T05:45:49.015Z,2.10
2019-03-24T05:48:20.136Z,2.04
2019-03-24T05:50:51.239Z,2.03
2019-03-24T05:53:22.294Z,2.13
2019-03-24T05:55:53.397Z,2.27
2019-03-24T05:58:25.527Z,2.33
2019-03-24T06:00:56.884Z,2.37
2019-03-24T06:03:27.958Z,2.38
2019-03-24T06:05:59.064Z,2.50
2019-03-24T06:08:30.184Z,2.56
2019-03-24T06:11:01.503Z,2.57
2019-03-24T06:13:32.611Z,2.72
2019-03-24T06:16:05.288Z,2.76
2019-03-24T06:18:36.431Z,2.79
2019-03-24T06:21:07.554Z,2.86
2019-03-24T06:23:40.362Z,2.99
2019-03-24T06:26:11.477Z,2.98
2019-03-24T06:28:44.883Z,3.05
2019-03-24T06:31:17.665Z,3.26
2019-03-24T06:33:48.854Z,3.22
2019-03-24T06:36:19.895Z,3.29
2019-03-24T06:38:51.039Z,3.23
2019-03-24T06:41:23.048Z,3.29
2019-03-24T06:43:54.350Z,3.26
2019-03-24T06:46:25.513Z,3.55
2019-03-24T06:48:56.679Z,3.62
2019-03-24T06:51:27.802Z,3.71
2019-03-24T06:53:58.902Z,3.79
2019-03-24T06:56:30.001Z,3.96
2019-03-24T06:59:01.904Z,4.09
2019-03-24T07:01:33.244Z,4.00
2019-03-24T07:04:04.403Z,4.01
2019-03-24T07:06:37.114Z,4.30
2019-03-24T07:09:08.247Z,4.45
2019-03-24T07:11:39.320Z,4.59
2019-03-24T07:14:10.433Z,4.61
2019-03-24T07:16:41.465Z,4.75
2019-03-24T07:19:12.624Z,4.90
2019-03-24T07:21:43.558Z,4.78
2019-03-24T07:24:15.697Z,4.96
2019-03-24T07:26:46.788Z,4.96
2019-03-24T07:29:17.908Z,5.15
2019-03-24T07:31:50.762Z,4.91
2019-03-24T07:34:21.900Z,4.78
2019-03-24T07:36:52.875Z,4.81
2019-03-24T07:39:23.849Z,4.82
2019-03-24T07:41:54.903Z,4.97
2019-03-24T07:44:25.955Z,4.70
2019-03-24T07:46:58.005Z,4.77
2019-03-24T07:49:29.146Z,4.93
2019-03-24T07:52:00.430Z,5.21
2019-03-24T07:54:31.408Z,5.18
2019-03-24T07:57:02.542Z,5.05
2019-03-24T07:59:34.475Z,5.08
2019-03-24T08:02:05.409Z,5.00
2019-03-24T08:04:36.612Z,4.94
2019-03-24T08:07:07.695Z,5.05
2019-03-24T08:09:38.861Z,5.18
2019-03-24T08:12:10.429Z,5.27
2019-03-24T08:14:45.615Z,5.42
2019-03-24T08:17:16.658Z,5.47
2019-03-24T08:19:48.128Z,5.24
2019-03-24T08:22:20.348Z,5.36
2019-03-24T08:24:52.236Z,5.53
2019-03-24T08:27:29.862Z,5.71
2019-03-24T08:30:01.005Z,5.81
2019-03-24T08:32:32.662Z,5.91
2019-03-24T08:35:05.146Z,5.81
2019-03-24T08:37:36.574Z,5.81
2019-03-24T08:40:07.696Z,5.97
2019-03-24T08:42:39.721Z,6.20
2019-03-24T08:45:13.942Z,6.37
2019-03-24T08:47:44.958Z,6.70
2019-03-24T08:50:15.956Z,6.70
2019-03-24T08:52:47.141Z,6.76
2019-03-24T08:55:18.104Z,6.78
2019-03-24T08:57:49.462Z,6.94
2019-03-24T09:00:30.169Z,6.94
2019-03-24T09:02:53.519Z,6.95
2019-03-24T09:05:24.466Z,7.02
2019-03-24T09:07:55.548Z,7.09
2019-03-24T09:10:26.622Z,7.11
2019-03-24T09:12:57.546Z,7.20
2019-03-24T09:15:28.653Z,7.36
2019-03-24T09:17:59.706Z,7.39
2019-03-24T09:20:40.971Z,7.26
2019-03-24T09:23:04.259Z,7.21
2019-03-24T09:25:36.099Z,7.31
2019-03-24T09:28:09.320Z,7.26
2019-03-24T09:30:40.885Z,7.36
2019-03-24T09:33:11.885Z,7.09
2019-03-24T09:35:42.988Z,7.19
2019-03-24T09:38:14.029Z,7.03
2019-03-24T09:40:44.906Z,7.17
2019-03-24T09:43:16.020Z,7.08
2019-03-24T09:45:47.081Z,7.10
2019-03-24T09:48:18.481Z,7.02
2019-03-24T09:50:49.348Z,7.10
2019-03-24T09:53:21.479Z,7.11
2019-03-24T09:55:54.365Z,7.29
2019-03-24T09:58:25.433Z,7.57
2019-03-24T10:00:56.513Z,7.53
2019-03-24T10:03:27.905Z,7.62
2019-03-24T10:05:58.814Z,7.58
2019-03-24T10:08:29.909Z,7.66
2019-03-24T10:11:01.075Z,7.79
2019-03-24T10:13:32.287Z,7.81
2019-03-24T10:16:03.448Z,7.52
2019-03-24T10:18:34.379Z,7.57
2019-03-24T10:21:05.399Z,7.29
2019-03-24T10:23:36.519Z,7.38
2019-03-24T10:26:07.571Z,7.60
2019-03-24T10:28:38.553Z,7.66
2019-03-24T10:31:09.867Z,7.54
2019-03-24T10:33:40.970Z,7.68
2019-03-24T10:36:12.385Z,7.67
2019-03-24T10:38:43.628Z,7.80
2019-03-24T10:41:14.601Z,7.62
2019-03-24T10:43:45.616Z,7.52
2019-03-24T10:46:16.705Z,7.34
2019-03-24T10:48:47.874Z,7.29
2019-03-24T10:51:18.911Z,7.44
2019-03-24T10:53:50.083Z,7.42
2019-03-24T10:56:21.093Z,7.51
2019-03-24T10:58:51.998Z,7.22
2019-03-24T11:01:23.126Z,7.48
2019-03-24T11:03:54.268Z,7.66
2019-03-24T11:06:25.389Z,7.45
2019-03-24T11:08:56.457Z,7.51
2019-03-24T11:11:27.457Z,7.39
2019-03-24T11:13:58.989Z,7.43
2019-03-24T11:16:30.195Z,7.40
2019-03-24T11:19:01.570Z,7.50
2019-03-24T11:21:32.627Z,7.66
2019-03-24T11:24:04.040Z,7.59
2019-03-24T11:26:35.307Z,7.48
2019-03-24T11:29:07.569Z,7.32
2019-03-24T11:31:38.762Z,7.39
2019-03-24T11:34:09.868Z,7.39
2019-03-24T11:36:41.083Z,7.26
2019-03-24T11:39:12.300Z,7.48
2019-03-24T11:41:43.346Z,7.63
2019-03-24T11:44:14.687Z,7.64
2019-03-24T11:46:45.814Z,7.68
2019-03-24T11:49:16.152Z,7.77
2019-03-24T11:51:47.285Z,7.76
2019-03-24T11:54:18.615Z,7.92
2019-03-24T11:56:49.732Z,7.85
2019-03-24T11:59:20.834Z,7.79
2019-03-24T12:01:51.795Z,7.66
2019-03-24T12:04:23.090Z,7.61
2019-03-24T12:06:54.178Z,7.54
2019-03-24T12:09:25.255Z,7.63
2019-03-24T12:11:56.375Z,7.63
2019-03-24T12:14:27.595Z,7.66
2019-03-24T12:16:58.643Z,7.69
2019-03-24T12:19:30.622Z,7.71
2019-03-24T12:22:01.519Z,7.93
2019-03-24T12:24:32.633Z,7.82
2019-03-24T12:27:03.687Z,7.88
2019-03-24T12:29:34.735Z,7.93
2019-03-24T12:32:05.658Z,7.89
2019-03-24T12:34:36.757Z,7.76
2019-03-24T12:37:07.966Z,7.71
2019-03-24T12:39:39.133Z,7.69
2019-03-24T12:42:10.079Z,7.76
2019-03-24T12:44:41.326Z,7.88
2019-03-24T12:47:13.051Z,7.80
2019-03-24T12:49:44.049Z,7.64
2019-03-24T12:52:15.131Z,7.74
2019-03-24T12:54:46.136Z,7.79
2019-03-24T12:57:17.323Z,7.81
2019-03-24T12:59:48.357Z,7.85
2019-03-24T13:02:19.773Z,7.87
2019-03-24T13:04:51.053Z,7.93
2019-03-24T13:07:22.276Z,7.75
2019-03-24T13:09:54.050Z,7.81
2019-03-24T13:12:25.372Z,7.79
2019-03-24T13:14:56.311Z,7.64
2019-03-24T13:17:27.367Z,7.58
2019-03-24T13:19:58.462Z,7.53
2019-03-24T13:22:29.493Z,7.57
2019-03-24T13:25:01.882Z,7.58
2019-03-24T13:27:33.069Z,7.61
2019-03-24T13:30:05.915Z,7.61
2019-03-24T13:32:37.049Z,7.76
2019-03-24T13:37:57.002Z,7.90
2019-03-24T13:40:28.865Z,8.00
2019-03-24T13:42:59.920Z,8.00
2019-03-24T13:45:31.131Z,8.03
2019-03-24T13:48:02.328Z,7.93
2019-03-24T13:50:33.391Z,7.84
2019-03-24T13:53:05.047Z,7.64
2019-03-24T13:55:39.217Z,7.63
2019-03-24T13:58:15.688Z,7.66
2019-03-24T14:00:47.126Z,7.74
2019-03-24T14:03:18.194Z,7.82
2019-03-24T14:05:49.297Z,7.73
2019-03-24T14:08:20.317Z,7.79
2019-03-24T14:10:51.328Z,7.85
2019-03-24T14:13:22.555Z,7.83
2019-03-24T14:15:55.503Z,7.87
2019-03-24T14:18:26.558Z,7.77
2019-03-24T14:20:57.743Z,7.79
2019-03-24T14:23:28.786Z,7.78
2019-03-24T14:25:59.754Z,7.76
2019-03-24T14:28:30.789Z,7.68
2019-03-24T14:31:01.821Z,7.73
2019-03-24T14:33:34.128Z,7.78
2019-03-24T14:36:05.380Z,7.67
2019-03-24T14:38:36.473Z,7.67
2019-03-24T14:41:08.869Z,7.71
2019-03-24T14:43:41.076Z,7.65
2019-03-24T14:46:12.245Z,7.71
2019-03-24T14:48:43.486Z,7.73
2019-03-24T14:51:14.704Z,7.60
2019-03-24T14:53:45.880Z,7.62
2019-03-24T14:56:16.963Z,7.62
2019-03-24T14:58:48.080Z,7.57
2019-03-24T15:01:19.089Z,7.57
2019-03-24T15:03:50.124Z,7.53
2019-03-24T15:06:22.337Z,7.53
2019-03-24T15:08:53.602Z,7.53
2019-03-24T15:11:25.892Z,7.51
2019-03-24T15:13:57.000Z,7.48
2019-03-24T15:16:28.162Z,7.54
2019-03-24T15:18:59.341Z,7.49
2019-03-24T15:21:30.535Z,7.40
2019-03-24T15:24:01.774Z,7.39
2019-03-24T15:26:33.017Z,7.37
2019-03-24T15:29:05.829Z,7.37
2019-03-24T15:31:37.454Z,7.42
2019-03-24T15:34:08.703Z,7.46
2019-03-24T15:36:39.942Z,7.48
2019-03-24T15:39:11.159Z,7.50
2019-03-24T15:41:43.525Z,7.42
2019-03-24T15:44:14.798Z,7.39
2019-03-24T15:46:46.902Z,7.48
2019-03-24T15:49:18.145Z,7.48
2019-03-24T15:51:49.220Z,7.46
2019-03-24T15:54:22.650Z,7.50
2019-03-24T15:56:53.794Z,7.51
2019-03-24T15:59:25.068Z,7.47
2019-03-24T16:01:56.219Z,7.52
2019-03-24T16:04:27.525Z,7.47
2019-03-24T16:06:59.145Z,7.45
2019-03-24T16:09:30.267Z,7.39
2019-03-24T16:12:01.459Z,7.34
2019-03-24T16:14:32.753Z,7.32
2019-03-24T16:17:03.929Z,7.37
2019-03-24T16:19:39.108Z,7.34
2019-03-24T16:22:11.993Z,7.34
2019-03-24T16:24:43.106Z,7.37
2019-03-24T16:27:17.210Z,7.35
2019-03-24T16:29:48.522Z,7.34
2019-03-24T16:32:23.244Z,7.32
2019-03-24T16:34:55.733Z,7.33
2019-03-24T16:37:27.824Z,7.34
2019-03-24T16:39:59.524Z,7.36
2019-03-24T16:42:32.947Z,7.40
2019-03-24T16:45:05.213Z,7.32
2019-03-24T16:47:36.409Z,7.38
2019-03-24T16:50:07.968Z,7.32
2019-03-24T16:52:39.143Z,7.34
2019-03-24T16:55:12.229Z,7.24
2019-03-24T16:57:44.280Z,7.25
2019-03-24T17:00:15.419Z,7.17
2019-03-24T17:02:46.773Z,7.21
2019-03-24T17:05:18.011Z,7.21
2019-03-24T17:07:50.208Z,7.17
2019-03-24T17:10:21.645Z,7.17
2019-03-24T17:12:52.704Z,7.19
2019-03-24T17:15:23.784Z,7.17
2019-03-24T17:17:55.035Z,7.11
2019-03-24T17:20:26.336Z,7.10
2019-03-24T17:22:57.518Z,7.14
2019-03-24T17:25:28.828Z,7.08
2019-03-24T17:28:00.604Z,7.05
2019-03-24T17:30:32.180Z,7.03
2019-03-24T17:33:03.741Z,7.00
2019-03-24T17:35:34.854Z,7.04
2019-03-24T17:38:06.116Z,7.02
2019-03-24T17:40:39.019Z,7.03
2019-03-24T17:43:12.135Z,7.01
2019-03-24T17:45:43.379Z,7.03
2019-03-24T17:48:14.724Z,7.01
2019-03-24T17:50:46.194Z,7.01
2019-03-24T17:53:17.453Z,7.02
2019-03-24T17:55:49.238Z,7.04
2019-03-24T17:58:20.721Z,7.00
2019-03-24T18:00:54.372Z,7.02
2019-03-24T18:03:28.383Z,6.99
2019-03-24T18:06:00.983Z,7.02
2019-03-24T18:08:32.315Z,7.00
2019-03-24T18:11:03.618Z,7.03
2019-03-24T18:13:34.879Z,7.07
2019-03-24T18:16:06.121Z,7.03
2019-03-24T18:18:37.241Z,7.05
2019-03-24T18:21:08.473Z,7.03
2019-03-24T18:23:39.659Z,7.09
2019-03-24T18:26:10.808Z,7.09
2019-03-24T18:28:42.049Z,7.11
2019-03-24T18:31:13.374Z,7.11
2019-03-24T18:33:44.884Z,7.13
2019-03-24T18:36:16.018Z,7.18
2019-03-24T18:38:50.744Z,7.26
2019-03-24T18:41:22.041Z,7.29
2019-03-24T18:43:53.389Z,7.26
2019-03-24T18:46:24.465Z,7.24
2019-03-24T18:48:55.684Z,7.26
2019-03-24T18:51:27.008Z,7.27
2019-03-24T18:53:58.233Z,7.30
2019-03-24T18:56:29.704Z,7.23
2019-03-24T18:59:00.929Z,7.21
2019-03-24T19:01:32.178Z,7.16
2019-03-24T19:04:04.512Z,7.14
2019-03-24T19:06:36.270Z,7.09
2019-03-24T19:09:08.926Z,7.07
2019-03-24T19:11:40.251Z,7.09
2019-03-24T19:14:11.467Z,7.09
2019-03-24T19:16:43.561Z,7.05
2019-03-24T19:19:14.821Z,7.07
2019-03-24T19:21:47.763Z,7.02
2019-03-24T19:24:19.027Z,7.07
2019-03-24T19:26:50.274Z,7.16
2019-03-24T19:29:21.380Z,7.10
2019-03-24T19:31:54.419Z,7.17
2019-03-24T19:34:25.657Z,7.29
2019-03-24T19:36:57.670Z,7.35
2019-03-24T19:39:29.147Z,7.38
2019-03-24T19:42:00.386Z,7.40
2019-03-24T19:44:31.703Z,7.49
2019-03-24T19:47:03.914Z,7.54
2019-03-24T19:49:35.081Z,7.60
2019-03-24T19:52:07.416Z,7.58
2019-03-24T19:54:40.340Z,7.60
2019-03-24T19:57:13.202Z,7.60
2019-03-24T19:59:44.769Z,7.63
2019-03-24T20:02:16.068Z,7.60
2019-03-24T20:04:47.310Z,7.54
2019-03-24T20:07:18.699Z,7.55
2019-03-24T20:09:50.117Z,7.59
2019-03-24T20:12:23.770Z,7.66
2019-03-24T20:14:56.355Z,7.66
2019-03-24T20:17:27.593Z,7.67
2019-03-24T20:19:58.829Z,7.63
2019-03-24T20:22:30.268Z,7.63
2019-03-24T20:25:01.500Z,7.67
2019-03-24T20:27:33.055Z,7.74
2019-03-24T20:30:07.016Z,7.67
2019-03-24T20:32:39.358Z,7.68
2019-03-24T20:35:10.608Z,7.66
2019-03-24T20:37:41.814Z,7.63
2019-03-24T20:40:13.922Z,7.59
2019-03-24T20:42:45.513Z,7.57
2019-03-24T20:45:20.169Z,7.54
2019-03-24T20:47:51.901Z,7.51
2019-03-24T20:50:24.305Z,7.48
2019-03-24T20:53:04.038Z,7.45
2019-03-24T20:55:28.905Z,7.44
2019-03-24T20:58:01.710Z,7.37
2019-03-24T21:00:36.323Z,7.31
2019-03-24T21:03:07.982Z,7.28
2019-03-24T21:05:39.925Z,7.23
2019-03-24T21:08:11.256Z,7.17
2019-03-24T21:10:44.812Z,7.06
2019-03-24T21:13:16.176Z,7.06
2019-03-24T21:15:49.015Z,7.04
2019-03-24T21:18:20.327Z,6.99
2019-03-24T21:20:53.394Z,6.99
2019-03-24T21:23:30.046Z,6.99
2019-03-24T21:26:06.827Z,6.94
2019-03-24T21:28:39.251Z,6.91
2019-03-24T21:31:10.574Z,6.88
2019-03-24T21:33:42.542Z,6.83
2019-03-24T21:36:16.428Z,6.87
2019-03-24T21:38:47.617Z,6.82
2019-03-24T21:41:18.883Z,6.87
2019-03-24T21:43:50.103Z,6.88
2019-03-24T21:46:21.531Z,6.85
2019-03-24T21:48:52.853Z,6.75
2019-03-24T21:51:24.002Z,6.73
2019-03-24T21:53:55.197Z,6.78
2019-03-24T21:56:26.400Z,6.69
2019-03-24T21:58:57.664Z,6.68
2019-03-24T22:01:32.792Z,6.68
2019-03-24T22:04:05.613Z,6.69
2019-03-24T22:06:37.289Z,6.63
2019-03-24T22:09:08.494Z,6.65
2019-03-24T22:11:41.914Z,6.59
2019-03-24T22:14:15.481Z,6.54
2019-03-24T22:16:47.483Z,6.54
2019-03-24T22:19:18.909Z,6.51
2019-03-24T22:21:53.222Z,6.47
2019-03-24T22:24:24.645Z,6.47
2019-03-24T22:26:55.679Z,6.44
2019-03-24T22:29:27.199Z,6.39
2019-03-24T22:31:58.481Z,6.36
2019-03-24T22:34:34.128Z,6.37
2019-03-24T22:37:15.424Z,6.34
2019-03-24T22:39:38.275Z,6.34
2019-03-24T22:42:10.432Z,6.32
2019-03-24T22:44:44.428Z,6.22
2019-03-24T22:47:16.828Z,6.11
2019-03-24T22:49:49.667Z,6.15
2019-03-24T22:52:23.878Z,6.13
2019-03-24T22:54:56.048Z,6.07
2019-03-24T22:57:27.438Z,5.98
2019-03-24T22:59:58.747Z,5.94
2019-03-24T23:02:30.947Z,5.92
2019-03-24T23:05:02.544Z,5.89
2019-03-24T23:07:34.847Z,5.85
2019-03-24T23:10:06.152Z,5.86
2019-03-24T23:12:37.474Z,5.84
2019-03-24T23:15:08.583Z,5.81
2019-03-24T23:17:39.892Z,5.81
2019-03-24T23:20:11.205Z,5.76
2019-03-24T23:22:43.486Z,5.79
2019-03-24T23:25:14.708Z,5.65
2019-03-24T23:27:45.972Z,5.58
2019-03-24T23:30:17.112Z,5.57
2019-03-24T23:32:48.729Z,5.54
2019-03-24T23:35:21.075Z,5.55
2019-03-24T23:37:52.740Z,5.48
2019-03-24T23:40:26.980Z,5.45
2019-03-24T23:42:58.113Z,5.36
2019-03-24T23:45:29.412Z,5.35
2019-03-24T23:48:00.514Z,5.28
2019-03-24T23:50:31.698Z,5.31
2019-03-24T23:53:03.807Z,5.27
2019-03-24T23:55:34.848Z,5.22
2019-03-24T23:58:06.752Z,5.19
